Volkermarkt, Austria
Current Conditions -  °F | °C
As of 11:50 AM on Monday 20 Oct 2014 (Local Time) from LOWK Reporting Station
Scattered Clouds Scattered Clouds  
Wind Chill: 55°   Ceiling: Unl
Heat Index: 55°   Visibility: 5mi
Dew Point: 52°   Wind: 3mph
Humidity: 88%   Direction: 80°E
Pressure: 30.18"   Gusts: NA
Location:  46.66°N, 14.63°E
Report Text: LOWK 200950Z 08003KT 020V150 8000 FEW004 SCT210 13/11 Q1022 NOSIG
Loading
Personal Weather Stations






























Interactive Weather Map
Tropical Storm Tracking
New forecast layout! Learn more

10-Day Weather Forecast

Advertisements
Track Severe Weather on mobile